sensor_id;sensor_type;location;lat;lon;timestamp;temperature;humidity
12421;DHT22;6275;43.688;1.408;2022-07-30T19:28:57;23.40;52.80
12421;DHT22;6275;43.688;1.408;2022-07-30T19:31:24;23.50;53.90
12421;DHT22;6275;43.688;1.408;2022-07-30T19:33:52;23.30;57.20
12421;DHT22;6275;43.688;1.408;2022-07-30T19:36:18;23.00;58.10
12421;DHT22;6275;43.688;1.408;2022-07-30T19:38:48;22.80;60.10
12421;DHT22;6275;43.688;1.408;2022-07-30T19:41:15;22.70;61.60
12421;DHT22;6275;43.688;1.408;2022-07-30T19:43:44;22.70;62.50
12421;DHT22;6275;43.688;1.408;2022-07-30T19:46:24;22.70;62.60
12421;DHT22;6275;43.688;1.408;2022-07-30T19:48:51;22.70;63.70
12421;DHT22;6275;43.688;1.408;2022-07-30T19:51:18;22.70;65.70
12421;DHT22;6275;43.688;1.408;2022-07-30T19:53:50;22.60;64.50
12421;DHT22;6275;43.688;1.408;2022-07-30T19:56:17;22.50;64.40
12421;DHT22;6275;43.688;1.408;2022-07-30T19:58:45;22.30;67.40
12421;DHT22;6275;43.688;1.408;2022-07-30T20:01:12;22.10;72.70
12421;DHT22;6275;43.688;1.408;2022-07-30T20:03:41;21.90;78.50
12421;DHT22;6275;43.688;1.408;2022-07-30T20:06:12;21.70;83.00
12421;DHT22;6275;43.688;1.408;2022-07-30T20:08:42;21.80;82.80
12421;DHT22;6275;43.688;1.408;2022-07-30T20:11:11;21.80;83.40
12421;DHT22;6275;43.688;1.408;2022-07-30T20:13:58;21.90;82.00
12421;DHT22;6275;43.688;1.408;2022-07-30T20:16:25;21.90;82.70
12421;DHT22;6275;43.688;1.408;2022-07-30T20:18:53;21.70;83.90
12421;DHT22;6275;43.688;1.408;2022-07-30T20:21:20;21.50;86.50
12421;DHT22;6275;43.688;1.408;2022-07-30T20:24:07;21.60;86.10
12421;DHT22;6275;43.688;1.408;2022-07-30T20:26:35;21.50;88.10
12421;DHT22;6275;43.688;1.408;2022-07-30T20:29:02;21.20;90.50
12421;DHT22;6275;43.688;1.408;2022-07-30T20:31:44;21.20;91.70
12421;DHT22;6275;43.688;1.408;2022-07-30T20:34:11;21.00;93.40
12421;DHT22;6275;43.688;1.408;2022-07-30T20:36:43;20.90;94.90
12421;DHT22;6275;43.688;1.408;2022-07-30T20:39:10;20.90;95.70
12421;DHT22;6275;43.688;1.408;2022-07-30T20:41:44;20.70;99.90
12421;DHT22;6275;43.688;1.408;2022-07-30T20:44:11;20.40;99.90
12421;DHT22;6275;43.688;1.408;2022-07-30T20:46:49;20.30;99.90
12421;DHT22;6275;43.688;1.408;2022-07-30T20:49:18;20.20;99.90
12421;DHT22;6275;43.688;1.408;2022-07-30T20:51:59;20.20;99.90
12421;DHT22;6275;43.688;1.408;2022-07-30T20:54:28;20.30;99.90
12421;DHT22;6275;43.688;1.408;2022-07-30T20:56:56;20.30;99.90
12421;DHT22;6275;43.688;1.408;2022-07-30T20:59:23;20.20;99.90
12421;DHT22;6275;43.688;1.408;2022-07-30T21:01:50;20.20;99.90
12421;DHT22;6275;43.688;1.408;2022-07-30T21:04:21;20.10;99.90
12421;DHT22;6275;43.688;1.408;2022-07-30T21:06:51;20.10;99.90
12421;DHT22;6275;43.688;1.408;2022-07-30T21:09:19;20.00;99.90
12421;DHT22;6275;43.688;1.408;2022-07-30T21:11:46;19.80;99.90
12421;DHT22;6275;43.688;1.408;2022-07-30T21:14:16;19.90;99.90
12421;DHT22;6275;43.688;1.408;2022-07-30T21:16:46;20.10;99.90
12421;DHT22;6275;43.688;1.408;2022-07-30T21:19:13;20.10;99.90
12421;DHT22;6275;43.688;1.408;2022-07-30T21:21:43;20.00;99.90
12421;DHT22;6275;43.688;1.408;2022-07-30T21:24:30;19.70;99.90
12421;DHT22;6275;43.688;1.408;2022-07-30T21:26:58;19.50;99.90
12421;DHT22;6275;43.688;1.408;2022-07-30T21:29:26;19.40;99.90
12421;DHT22;6275;43.688;1.408;2022-07-30T21:31:54;19.40;99.90
12421;DHT22;6275;43.688;1.408;2022-07-30T21:34:34;19.20;99.90
12421;DHT22;6275;43.688;1.408;2022-07-30T21:37:08;19.00;99.90
12421;DHT22;6275;43.688;1.408;2022-07-30T21:39:35;18.70;99.90
12421;DHT22;6275;43.688;1.408;2022-07-30T21:42:07;18.60;99.90
12421;DHT22;6275;43.688;1.408;2022-07-30T21:44:35;18.60;99.90
12421;DHT22;6275;43.688;1.408;2022-07-30T21:47:04;18.60;99.90
12421;DHT22;6275;43.688;1.408;2022-07-30T21:49:37;18.70;99.90
12421;DHT22;6275;43.688;1.408;2022-07-30T21:52:05;18.80;99.90
12421;DHT22;6275;43.688;1.408;2022-07-30T21:54:33;18.70;99.90
12421;DHT22;6275;43.688;1.408;2022-07-30T21:57:11;18.70;99.90
12421;DHT22;6275;43.688;1.408;2022-07-30T21:59:39;18.90;99.90
12421;DHT22;6275;43.688;1.408;2022-07-30T22:02:06;18.80;99.90
12421;DHT22;6275;43.688;1.408;2022-07-30T22:04:44;18.60;99.90
12421;DHT22;6275;43.688;1.408;2022-07-30T22:07:16;18.60;99.90
12421;DHT22;6275;43.688;1.408;2022-07-30T22:09:44;18.80;99.90
12421;DHT22;6275;43.688;1.408;2022-07-30T22:12:11;18.90;99.90
12421;DHT22;6275;43.688;1.408;2022-07-30T22:14:43;18.80;99.90
12421;DHT22;6275;43.688;1.408;2022-07-30T22:17:12;18.70;99.90
12421;DHT22;6275;43.688;1.408;2022-07-30T22:19:50;18.50;99.90
12421;DHT22;6275;43.688;1.408;2022-07-30T22:22:17;18.30;99.90
12421;DHT22;6275;43.688;1.408;2022-07-30T22:24:54;18.10;99.90
12421;DHT22;6275;43.688;1.408;2022-07-30T22:27:23;17.90;99.90
12421;DHT22;6275;43.688;1.408;2022-07-30T22:29:50;18.00;99.90
12421;DHT22;6275;43.688;1.408;2022-07-30T22:32:22;18.00;99.90
12421;DHT22;6275;43.688;1.408;2022-07-30T22:34:50;18.10;99.90
12421;DHT22;6275;43.688;1.408;2022-07-30T22:37:19;18.10;99.90
12421;DHT22;6275;43.688;1.408;2022-07-30T22:39:47;18.10;99.90
12421;DHT22;6275;43.688;1.408;2022-07-30T22:42:18;17.90;99.90
12421;DHT22;6275;43.688;1.408;2022-07-30T22:44:52;17.90;99.90
12421;DHT22;6275;43.688;1.408;2022-07-30T22:47:21;18.00;99.90
12421;DHT22;6275;43.688;1.408;2022-07-30T22:50:08;17.90;99.90
12421;DHT22;6275;43.688;1.408;2022-07-30T22:52:38;18.00;99.90
12421;DHT22;6275;43.688;1.408;2022-07-30T22:55:06;17.80;99.90
12421;DHT22;6275;43.688;1.408;2022-07-30T22:57:36;17.50;99.90
12421;DHT22;6275;43.688;1.408;2022-07-30T23:00:06;17.40;99.90
12421;DHT22;6275;43.688;1.408;2022-07-30T23:02:41;17.30;99.90
12421;DHT22;6275;43.688;1.408;2022-07-30T23:05:09;17.50;99.90
12421;DHT22;6275;43.688;1.408;2022-07-30T23:07:37;17.70;99.90
12421;DHT22;6275;43.688;1.408;2022-07-30T23:10:10;17.90;99.90
12421;DHT22;6275;43.688;1.408;2022-07-30T23:12:46;17.90;99.90
12421;DHT22;6275;43.688;1.408;2022-07-30T23:15:14;17.80;99.90
12421;DHT22;6275;43.688;1.408;2022-07-30T23:17:41;17.70;99.90
12421;DHT22;6275;43.688;1.408;2022-07-30T23:20:12;17.50;99.90
12421;DHT22;6275;43.688;1.408;2022-07-30T23:22:40;17.40;99.90
12421;DHT22;6275;43.688;1.408;2022-07-30T23:25:09;17.70;99.90
12421;DHT22;6275;43.688;1.408;2022-07-30T23:27:36;17.70;99.90
12421;DHT22;6275;43.688;1.408;2022-07-30T23:30:07;17.70;99.90
12421;DHT22;6275;43.688;1.408;2022-07-30T23:32:35;17.60;99.90
12421;DHT22;6275;43.688;1.408;2022-07-30T23:35:05;17.50;99.90
12421;DHT22;6275;43.688;1.408;2022-07-30T23:37:34;17.50;99.90
12421;DHT22;6275;43.688;1.408;2022-07-30T23:40:18;17.50;99.90
12421;DHT22;6275;43.688;1.408;2022-07-30T23:42:46;17.30;99.90
12421;DHT22;6275;43.688;1.408;2022-07-30T23:45:13;17.20;99.90
12421;DHT22;6275;43.688;1.408;2022-07-30T23:47:40;17.40;99.90
12421;DHT22;6275;43.688;1.408;2022-07-30T23:50:28;17.60;99.90
12421;DHT22;6275;43.688;1.408;2022-07-30T23:52:55;17.60;99.90
12421;DHT22;6275;43.688;1.408;2022-07-30T23:55:22;17.50;99.90
12421;DHT22;6275;43.688;1.408;2022-07-30T23:57:49;17.40;99.90
